createdAt,value
2023-05-05T00:01:02.193Z,2.57
2023-05-05T00:03:30.275Z,1.80
2023-05-05T00:05:58.820Z,1.97
2023-05-05T00:08:29.500Z,1.77
2023-05-05T00:10:57.608Z,1.90
2023-05-05T00:13:25.675Z,2.20
2023-05-05T00:15:54.521Z,2.17
2023-05-05T00:18:22.281Z,1.77
2023-05-05T00:20:50.162Z,1.80
2023-05-05T00:23:18.384Z,2.20
2023-05-05T00:25:47.872Z,1.83
2023-05-05T00:28:15.686Z,1.50
2023-05-05T00:30:43.497Z,1.93
2023-05-05T00:33:11.456Z,1.77
2023-05-05T00:35:39.150Z,2.27
2023-05-05T00:38:06.786Z,2.00
2023-05-05T00:40:34.611Z,2.17
2023-05-05T00:43:03.762Z,1.93
2023-05-05T00:45:31.702Z,2.13
2023-05-05T00:48:01.222Z,2.10
2023-05-05T00:50:30.845Z,2.10
2023-05-05T00:53:01.671Z,1.80
2023-05-05T00:55:29.988Z,2.17
2023-05-05T00:57:58.078Z,1.90
2023-05-05T01:00:28.176Z,2.23
2023-05-05T01:02:56.127Z,2.20
2023-05-05T01:05:25.847Z,2.47
2023-05-05T01:08:07.421Z,2.20
2023-05-05T01:10:39.467Z,2.13
2023-05-05T01:13:20.357Z,2.27
2023-05-05T01:15:54.188Z,1.83
2023-05-05T01:18:32.526Z,2.47
2023-05-05T01:21:07.780Z,2.20
2023-05-05T01:23:56.069Z,2.27
2023-05-05T01:26:42.040Z,2.00
2023-05-05T01:29:30.986Z,2.40
2023-05-05T01:32:03.486Z,2.23
2023-05-05T01:34:37.410Z,2.63
2023-05-05T01:37:10.898Z,2.07
2023-05-05T01:39:39.754Z,2.20
2023-05-05T01:42:13.806Z,1.93
2023-05-05T01:44:43.885Z,2.60
2023-05-05T01:47:14.672Z,2.27
2023-05-05T01:49:46.622Z,2.17
2023-05-05T01:52:15.897Z,1.93
2023-05-05T01:54:46.087Z,2.20
2023-05-05T01:57:15.521Z,2.27
2023-05-05T01:59:43.672Z,2.50
2023-05-05T02:02:14.183Z,2.30
2023-05-05T02:04:44.283Z,2.43
2023-05-05T02:07:13.716Z,2.67
2023-05-05T02:09:43.660Z,2.13
2023-05-05T02:12:13.183Z,2.10
2023-05-05T02:14:43.894Z,2.80
2023-05-05T02:17:14.195Z,2.77
2023-05-05T02:19:45.424Z,2.67
2023-05-05T02:22:16.509Z,2.33
2023-05-05T02:24:44.993Z,2.67
2023-05-05T02:27:13.374Z,2.13
2023-05-05T02:29:48.672Z,2.30
2023-05-05T02:32:29.464Z,2.50
2023-05-05T02:35:00.156Z,2.90
2023-05-05T02:37:31.015Z,2.73
2023-05-05T02:40:03.889Z,2.37
2023-05-05T02:42:38.045Z,2.30
2023-05-05T02:45:11.206Z,2.30
2023-05-05T02:47:40.421Z,2.73
2023-05-05T02:50:09.517Z,2.67
2023-05-05T02:52:38.307Z,2.70
2023-05-05T02:55:08.149Z,2.90
2023-05-05T02:57:39.807Z,2.40
2023-05-05T03:00:11.999Z,2.27
2023-05-05T03:02:45.960Z,2.47
2023-05-05T03:05:20.877Z,2.50
2023-05-05T03:07:55.947Z,2.80
2023-05-05T03:10:31.559Z,2.80
2023-05-05T03:13:03.310Z,2.50
2023-05-05T03:15:33.438Z,2.47
2023-05-05T03:18:04.924Z,2.77
2023-05-05T03:20:33.668Z,2.87
2023-05-05T03:23:02.569Z,2.97
2023-05-05T03:25:46.466Z,3.10
2023-05-05T03:28:15.859Z,2.47
2023-05-05T03:30:44.960Z,2.90
2023-05-05T03:33:15.387Z,3.10
2023-05-05T03:35:43.348Z,2.63
2023-05-05T03:38:13.716Z,3.00
2023-05-05T03:40:44.654Z,3.00
2023-05-05T03:43:14.733Z,2.63
2023-05-05T03:45:42.504Z,2.80
2023-05-05T03:48:10.522Z,2.80
2023-05-05T03:50:39.740Z,2.43
2023-05-05T03:53:07.648Z,2.47
2023-05-05T03:55:37.339Z,2.80
2023-05-05T03:58:06.284Z,2.40
2023-05-05T04:00:34.240Z,2.43
2023-05-05T04:03:03.398Z,2.53
2023-05-05T04:05:32.234Z,2.50
2023-05-05T04:08:02.070Z,2.67
2023-05-05T04:11:11.390Z,2.80
2023-05-05T04:14:07.853Z,2.63
2023-05-05T04:16:37.090Z,2.63
2023-05-05T04:19:07.164Z,2.73
2023-05-05T04:21:37.887Z,2.80
2023-05-05T04:24:08.652Z,2.67
2023-05-05T04:26:37.404Z,2.43
2023-05-05T04:29:05.057Z,2.90
2023-05-05T04:31:33.524Z,2.57
2023-05-05T04:34:03.015Z,2.80
2023-05-05T04:36:30.761Z,2.80
2023-05-05T04:39:00.557Z,2.70
2023-05-05T04:41:30.169Z,3.00
2023-05-05T04:43:58.671Z,2.60
2023-05-05T04:46:27.002Z,2.07
2023-05-05T04:48:55.680Z,2.73
2023-05-05T04:51:23.464Z,2.43
2023-05-05T04:53:52.210Z,2.27
2023-05-05T04:56:24.058Z,2.20
2023-05-05T04:58:56.621Z,2.77
2023-05-05T05:01:28.118Z,2.70
2023-05-05T05:03:59.031Z,2.77
2023-05-05T05:06:27.585Z,2.23
2023-05-05T05:08:56.824Z,2.20
2023-05-05T05:11:27.339Z,2.77
2023-05-05T05:13:58.902Z,2.43
2023-05-05T05:16:29.975Z,2.07
2023-05-05T05:19:00.174Z,2.20
2023-05-05T05:21:34.548Z,2.33
2023-05-05T05:24:06.934Z,2.47
2023-05-05T05:26:38.844Z,2.20
2023-05-05T05:29:14.420Z,2.57
2023-05-05T05:32:19.819Z,2.10
2023-05-05T05:37:51.636Z,2.13
2023-05-05T05:40:21.378Z,1.97
2023-05-05T05:42:49.979Z,2.50
2023-05-05T05:45:20.280Z,2.00
2023-05-05T05:47:50.052Z,2.23
2023-05-05T05:50:19.012Z,2.27
2023-05-05T06:07:07.679Z,1.90
2023-05-05T06:09:35.804Z,1.77
2023-05-05T06:12:06.424Z,2.20
2023-05-05T06:22:42.959Z,1.90
2023-05-05T06:25:11.027Z,1.90
2023-05-05T06:27:38.752Z,2.20
2023-05-05T06:30:09.896Z,2.03
2023-05-05T06:32:38.484Z,1.60
2023-05-05T06:35:07.434Z,2.13
2023-05-05T06:37:35.907Z,2.10
2023-05-05T06:40:06.865Z,2.33
2023-05-05T06:42:38.712Z,2.33
2023-05-05T06:45:07.333Z,1.93
2023-05-05T06:47:35.954Z,2.27
2023-05-05T06:50:05.459Z,2.23
2023-05-05T06:52:33.556Z,2.57
2023-05-05T06:55:01.583Z,2.60
2023-05-05T06:57:33.248Z,2.20
2023-05-05T07:00:01.917Z,2.43
2023-05-05T07:02:32.302Z,2.35
2023-05-05T07:05:01.068Z,2.25
2023-05-05T07:07:28.784Z,2.53
2023-05-05T07:09:56.525Z,2.53
2023-05-05T07:15:26.045Z,2.47
2023-05-05T07:17:55.015Z,2.35
2023-05-05T07:20:26.248Z,2.55
2023-05-05T07:22:54.366Z,2.35
2023-05-05T07:25:26.828Z,1.98
2023-05-05T07:28:01.058Z,2.40
2023-05-05T07:30:28.846Z,2.65
2023-05-05T07:35:39.584Z,1.95
2023-05-05T07:38:13.421Z,2.63
2023-05-05T07:40:48.648Z,2.97
2023-05-05T07:43:19.100Z,2.75
2023-05-05T07:45:56.754Z,2.88
2023-05-05T07:48:31.987Z,2.67
2023-05-05T07:51:00.523Z,3.05
2023-05-05T07:53:31.478Z,2.95
2023-05-05T07:55:59.278Z,2.90
2023-05-05T07:58:35.571Z,2.92
2023-05-05T08:01:08.932Z,2.80
2023-05-05T08:03:37.225Z,2.53
2023-05-05T08:06:19.444Z,3.33
2023-05-05T08:08:48.970Z,3.05
2023-05-05T08:11:16.780Z,3.22
2023-05-05T08:13:46.469Z,2.70
2023-05-05T08:16:17.600Z,2.30
2023-05-05T08:18:53.522Z,2.92
2023-05-05T08:21:21.287Z,3.13
2023-05-05T08:23:49.061Z,2.75
2023-05-05T08:26:20.650Z,2.97
2023-05-05T08:28:50.010Z,2.92
2023-05-05T08:31:19.295Z,2.75
2023-05-05T08:33:48.249Z,2.58
2023-05-05T08:36:16.376Z,3.20
2023-05-05T08:38:44.145Z,3.63
2023-05-05T08:41:22.847Z,2.70
2023-05-05T08:43:52.859Z,3.28
2023-05-05T08:46:21.236Z,2.33
2023-05-05T08:48:49.805Z,2.85
2023-05-05T10:31:13.155Z,4.43
2023-05-05T10:33:55.359Z,3.60
2023-05-05T10:36:24.779Z,4.63
2023-05-05T10:38:56.605Z,3.28
2023-05-05T10:41:26.044Z,3.72
2023-05-05T10:43:56.240Z,4.00
2023-05-05T10:46:24.685Z,3.90
2023-05-05T10:49:01.049Z,3.75
2023-05-05T10:51:40.655Z,3.55
2023-05-05T10:54:15.088Z,3.40
2023-05-05T10:56:44.550Z,4.88
2023-05-05T10:59:43.846Z,3.08
2023-05-05T11:02:26.062Z,3.63
2023-05-05T11:05:14.917Z,3.88
2023-05-05T11:07:43.501Z,4.10
2023-05-05T11:10:12.506Z,3.65
2023-05-05T11:13:24.681Z,3.92
2023-05-05T11:15:56.997Z,3.13
2023-05-05T11:18:37.854Z,3.35
2023-05-05T11:21:15.726Z,3.35
2023-05-05T11:23:45.955Z,4.85
2023-05-05T11:26:16.477Z,3.80
2023-05-05T11:28:59.473Z,4.80
2023-05-05T11:31:28.142Z,3.70
2023-05-05T11:34:29.394Z,5.00
2023-05-05T11:37:10.652Z,4.97
2023-05-05T11:39:55.103Z,4.32
2023-05-05T11:42:31.295Z,3.10
2023-05-05T11:45:02.338Z,3.65
2023-05-05T11:47:32.688Z,2.92
2023-05-05T11:50:23.478Z,3.53
2023-05-05T11:52:59.656Z,3.20
2023-05-05T11:55:28.024Z,3.00
2023-05-05T11:57:58.117Z,2.53
2023-05-05T12:00:37.220Z,2.97
2023-05-05T12:03:08.163Z,3.17
2023-05-05T12:05:37.214Z,3.17
2023-05-05T12:08:10.717Z,3.28
2023-05-05T12:10:43.142Z,3.92
2023-05-05T12:13:24.313Z,4.00
2023-05-05T12:15:54.148Z,4.05
2023-05-05T12:18:23.513Z,3.90
2023-05-05T12:20:53.738Z,3.78
2023-05-05T12:23:28.529Z,3.67
2023-05-05T12:25:59.516Z,3.95
2023-05-05T12:28:44.388Z,3.80
2023-05-05T12:31:15.936Z,3.35
2023-05-05T12:33:44.957Z,3.55
2023-05-05T12:36:13.634Z,3.58
2023-05-05T12:38:47.450Z,3.35
2023-05-05T12:41:24.859Z,3.03
2023-05-05T12:43:59.834Z,3.28
2023-05-05T12:46:29.947Z,3.75
2023-05-05T12:49:12.451Z,3.67
2023-05-05T12:51:53.814Z,2.75
2023-05-05T12:54:29.505Z,3.55
2023-05-05T12:56:58.560Z,3.88
2023-05-05T12:59:30.831Z,4.25
2023-05-05T13:02:01.284Z,5.43
2023-05-05T13:04:29.400Z,4.90
2023-05-05T13:07:11.901Z,3.97
2023-05-05T13:09:41.482Z,3.10
2023-05-05T13:12:12.421Z,3.25
2023-05-05T13:14:41.005Z,2.60
2023-05-05T13:17:08.807Z,3.22
2023-05-05T13:19:41.724Z,3.10
2023-05-05T13:22:10.928Z,2.97
2023-05-05T13:24:50.840Z,2.50
2023-05-05T13:27:21.969Z,2.90
2023-05-05T13:29:50.012Z,3.05
2023-05-05T13:32:18.309Z,2.97
2023-05-05T13:34:46.000Z,2.70
2023-05-05T13:37:13.663Z,2.65
2023-05-05T13:39:41.401Z,1.40
2023-05-05T13:42:09.697Z,1.67
2023-05-05T13:44:39.321Z,1.48
2023-05-05T13:47:07.516Z,1.45
2023-05-05T13:49:35.966Z,1.98
2023-05-05T13:52:03.660Z,2.00
2023-05-05T13:54:31.659Z,1.50
2023-05-05T13:57:00.048Z,1.35
2023-05-05T13:59:28.405Z,1.38
2023-05-05T14:01:57.788Z,1.40
2023-05-05T14:04:25.917Z,1.20
2023-05-05T14:06:54.753Z,1.58
2023-05-05T14:09:22.586Z,1.10
2023-05-05T14:11:50.278Z,1.20
2023-05-05T14:14:18.033Z,1.25
2023-05-05T14:16:47.849Z,1.20
2023-05-05T14:19:18.499Z,1.60
2023-05-05T14:21:46.527Z,1.60
2023-05-05T14:24:14.215Z,1.40
2023-05-05T14:26:41.932Z,1.40
2023-05-05T14:29:09.662Z,1.73
2023-05-05T14:31:37.419Z,1.35
2023-05-05T14:34:05.517Z,1.90
2023-05-05T14:36:34.970Z,1.88
2023-05-05T14:39:02.716Z,1.77
2023-05-05T14:41:30.375Z,1.80
2023-05-05T14:43:59.189Z,5.22
2023-05-05T14:46:27.865Z,2.60
2023-05-05T14:48:55.693Z,2.75
2023-05-05T14:51:23.487Z,2.08
2023-05-05T14:53:52.520Z,3.45
2023-05-05T14:56:21.861Z,2.70
2023-05-05T14:58:49.646Z,2.10
2023-05-05T15:01:17.532Z,2.03
2023-05-05T15:03:45.436Z,2.33
2023-05-05T15:06:15.209Z,1.67
2023-05-05T15:08:43.233Z,1.77
2023-05-05T15:11:12.358Z,1.50
2023-05-05T15:13:41.450Z,1.70
2023-05-05T15:16:09.577Z,2.03
2023-05-05T15:18:37.441Z,1.40
2023-05-05T15:21:05.569Z,1.90
2023-05-05T15:23:33.330Z,2.60
2023-05-05T15:26:01.296Z,6.90
2023-05-05T15:28:30.404Z,2.50
2023-05-05T15:31:01.784Z,2.22
2023-05-05T15:33:30.186Z,2.33
2023-05-05T15:35:58.027Z,1.98
2023-05-05T15:38:25.822Z,1.65
2023-05-05T15:40:53.516Z,2.13
2023-05-05T15:43:21.219Z,2.05
2023-05-05T15:45:50.275Z,2.53
2023-05-05T15:48:17.974Z,5.57
2023-05-05T15:50:45.657Z,2.65
2023-05-05T15:53:13.403Z,1.85
2023-05-05T15:55:41.648Z,3.63
2023-05-05T15:58:09.401Z,5.32
2023-05-05T16:00:37.313Z,2.00
2023-05-05T16:03:06.569Z,2.30
2023-05-05T16:05:34.444Z,2.55
2023-05-05T16:08:02.185Z,2.47
2023-05-05T16:10:32.830Z,6.32
2023-05-05T16:13:00.695Z,6.40
2023-05-05T16:15:28.547Z,3.17
2023-05-05T16:17:56.231Z,3.13
2023-05-05T16:20:25.314Z,3.92
2023-05-05T16:22:53.035Z,3.90
2023-05-05T16:25:20.923Z,3.58
2023-05-05T16:27:48.658Z,3.85
2023-05-05T16:30:17.061Z,5.10
2023-05-05T16:32:47.536Z,9.52
2023-05-05T16:35:15.456Z,3.85
2023-05-05T16:37:44.610Z,4.97
2023-05-05T16:40:14.508Z,4.22
2023-05-05T16:42:44.353Z,5.97
2023-05-05T16:45:13.448Z,2.80
2023-05-05T16:47:41.200Z,2.22
2023-05-05T16:50:09.840Z,3.38
2023-05-05T16:52:37.892Z,2.90
2023-05-05T16:55:07.991Z,2.53
2023-05-05T16:57:35.994Z,2.50
2023-05-05T17:00:03.798Z,2.60
2023-05-05T17:02:31.501Z,1.80
2023-05-05T17:04:59.475Z,1.85
2023-05-05T17:07:27.458Z,2.20
2023-05-05T17:09:55.215Z,3.70
2023-05-05T17:12:25.651Z,2.63
2023-05-05T17:14:53.593Z,2.65
2023-05-05T17:17:21.333Z,2.45
2023-05-05T17:19:49.052Z,2.42
2023-05-05T17:22:17.896Z,2.05
2023-05-05T17:24:46.071Z,3.78
2023-05-05T17:27:14.880Z,4.45
2023-05-05T17:29:44.798Z,2.42
2023-05-05T17:32:12.602Z,2.25
2023-05-05T17:34:41.858Z,3.25
2023-05-05T17:37:10.094Z,3.95
2023-05-05T17:39:37.804Z,3.00
2023-05-05T17:42:06.294Z,3.33
2023-05-05T17:44:33.966Z,5.10
2023-05-05T17:47:04.004Z,5.32
2023-05-05T17:49:33.240Z,4.25
2023-05-05T17:52:02.586Z,4.70
2023-05-05T17:54:30.330Z,4.35
2023-05-05T17:57:00.742Z,3.92
2023-05-05T17:59:29.778Z,5.40
2023-05-05T18:01:57.742Z,14.88
2023-05-05T18:04:27.100Z,6.15
2023-05-05T18:06:56.037Z,5.85
2023-05-05T18:09:24.668Z,5.78
2023-05-05T18:11:53.433Z,7.07
2023-05-05T18:14:22.497Z,7.40
2023-05-05T18:16:52.441Z,6.60
2023-05-05T18:19:22.288Z,6.05
2023-05-05T18:21:52.522Z,5.88
2023-05-05T18:24:20.753Z,6.03
2023-05-05T18:26:50.536Z,5.55
2023-05-05T18:29:20.576Z,5.47
2023-05-05T18:31:51.770Z,6.10
2023-05-05T18:34:22.031Z,7.18
2023-05-05T18:36:54.219Z,5.88
2023-05-05T18:39:22.495Z,6.22
2023-05-05T18:41:50.392Z,6.40
2023-05-05T18:44:19.639Z,5.65
2023-05-05T18:46:48.969Z,6.10
2023-05-05T18:49:17.234Z,5.95
2023-05-05T18:51:46.252Z,9.38
2023-05-05T18:54:15.424Z,6.68
2023-05-05T18:56:45.130Z,6.78
2023-05-05T18:59:13.012Z,5.68
2023-05-05T19:01:44.120Z,6.25
2023-05-05T19:04:26.836Z,7.72
2023-05-05T19:06:58.876Z,6.00
2023-05-05T19:09:32.747Z,7.78
2023-05-05T19:12:02.454Z,8.73
2023-05-05T19:14:34.181Z,8.18
2023-05-05T19:17:03.670Z,8.15
2023-05-05T19:19:37.771Z,7.93
2023-05-05T19:22:07.673Z,8.15
2023-05-05T19:24:40.579Z,7.13
2023-05-05T19:27:14.754Z,7.22
2023-05-05T19:29:44.816Z,3.72
2023-05-05T19:32:14.564Z,2.23
2023-05-05T19:34:45.246Z,2.00
2023-05-05T19:37:14.657Z,1.80
2023-05-05T19:39:49.086Z,2.40
2023-05-05T19:42:18.591Z,2.00
2023-05-05T19:44:48.153Z,2.10
2023-05-05T19:47:16.964Z,2.60
2023-05-05T19:49:45.452Z,2.50
2023-05-05T19:52:13.970Z,2.60
2023-05-05T19:54:48.419Z,2.23
2023-05-05T19:57:18.197Z,6.20
2023-05-05T19:59:47.154Z,3.20
2023-05-05T20:02:23.980Z,1.57
2023-05-05T20:04:57.914Z,1.40
2023-05-05T20:07:26.627Z,1.47
2023-05-05T20:09:58.814Z,1.43
2023-05-05T20:12:27.054Z,1.53
2023-05-05T20:14:57.186Z,1.60
2023-05-05T20:17:31.388Z,1.50
2023-05-05T20:20:02.115Z,2.07
2023-05-05T20:22:31.094Z,1.90
2023-05-05T20:25:01.414Z,2.10
2023-05-05T20:27:32.961Z,1.50
2023-05-05T20:30:05.125Z,1.63
2023-05-05T20:32:34.902Z,1.47
2023-05-05T20:35:04.667Z,1.60
2023-05-05T20:37:33.870Z,1.53
2023-05-05T20:40:06.298Z,1.60
2023-05-05T20:42:37.077Z,1.70
2023-05-05T20:45:08.323Z,1.50
2023-05-05T20:47:38.552Z,1.90
2023-05-05T20:50:13.496Z,1.80
2023-05-05T20:52:42.290Z,1.90
2023-05-05T20:55:20.223Z,1.77
2023-05-05T20:57:55.853Z,1.67
2023-05-05T21:00:28.383Z,2.03
2023-05-05T21:02:58.973Z,18.10
2023-05-05T21:05:28.042Z,16.73
2023-05-05T21:08:01.318Z,2.10
2023-05-05T21:10:33.342Z,2.20
2023-05-05T21:13:02.357Z,2.03
2023-05-05T21:15:34.656Z,2.10
2023-05-05T21:18:07.903Z,1.50
2023-05-05T21:20:36.889Z,1.73
2023-05-05T21:23:04.888Z,2.43
2023-05-05T21:25:34.570Z,1.70
2023-05-05T21:28:10.497Z,1.93
2023-05-05T21:30:39.410Z,1.87
2023-05-05T21:33:07.589Z,1.90
2023-05-05T21:35:39.084Z,1.83
2023-05-05T21:38:08.280Z,2.60
2023-05-05T21:40:37.639Z,1.77
2023-05-05T21:43:08.321Z,1.87
2023-05-05T21:45:38.066Z,1.87
2023-05-05T21:48:11.986Z,2.00
2023-05-05T21:50:43.025Z,1.90
2023-05-05T21:53:10.963Z,1.90
2023-05-05T21:55:42.895Z,1.50
2023-05-05T21:58:13.618Z,1.93
2023-05-05T22:00:44.597Z,1.83
2023-05-05T22:03:27.984Z,2.20
2023-05-05T22:05:56.876Z,1.97
2023-05-05T22:08:25.747Z,2.00
2023-05-05T22:10:55.237Z,1.93
2023-05-05T22:13:23.753Z,2.13
2023-05-05T22:15:55.308Z,2.43
2023-05-05T22:18:23.293Z,2.30
2023-05-05T22:20:51.544Z,2.10
2023-05-05T22:23:20.594Z,2.37
2023-05-05T22:25:49.174Z,2.53
2023-05-05T22:28:18.816Z,2.50
2023-05-05T22:30:46.993Z,2.57
2023-05-05T22:33:17.583Z,2.50
2023-05-05T22:35:45.520Z,2.60
2023-05-05T22:38:14.696Z,2.73
2023-05-05T22:40:51.032Z,2.50
2023-05-05T22:43:28.863Z,2.93
2023-05-05T22:46:01.451Z,2.50
2023-05-05T22:48:31.296Z,2.13
2023-05-05T22:50:59.947Z,2.30
2023-05-05T22:53:29.589Z,2.03
2023-05-05T22:56:01.813Z,1.90
2023-05-05T22:58:32.659Z,2.00
2023-05-05T23:01:00.983Z,2.07
2023-05-05T23:03:30.482Z,2.33
2023-05-05T23:05:59.311Z,2.23
2023-05-05T23:08:28.767Z,2.90
2023-05-05T23:10:57.743Z,2.73
2023-05-05T23:13:27.689Z,2.33
2023-05-05T23:15:57.468Z,3.03
2023-05-05T23:18:26.735Z,2.73
2023-05-05T23:20:55.705Z,2.33
2023-05-05T23:23:25.160Z,3.10
2023-05-05T23:25:55.265Z,2.90
2023-05-05T23:28:26.002Z,2.80
2023-05-05T23:30:56.288Z,3.00
2023-05-05T23:33:27.265Z,2.87
2023-05-05T23:35:55.407Z,2.93
2023-05-05T23:38:23.822Z,3.20
2023-05-05T23:40:53.138Z,2.93
2023-05-05T23:43:25.985Z,2.60
2023-05-05T23:45:54.200Z,3.30
2023-05-05T23:48:22.172Z,2.73
2023-05-05T23:50:53.564Z,3.33
2023-05-05T23:53:21.562Z,3.07
2023-05-05T23:55:51.993Z,3.40
2023-05-05T23:58:22.548Z,2.97
